Terminal Aerodrome Forecast
Issued by NWS

Home | Current Version | Previous Version | Text Only | Print | Product List | Glossary On
Versions: 1 2 3 4 5 6 7 8 9 10 11 12 13 14 15 16 17 18 19 20 21 22 23
000
FTAK31 PANC 241141
TAFAEN
TAF
PAEN 241141Z 2412/2512 01008KT 3/4SM -SN BR OVC015
      TEMPO 2412/2416 1/2SM -SN FZFG BKN009
     FM241600 VRB04KT 3SM -SN BR SCT010 BKN020
     FM242000 27012KT P6SM VCSH BKN025
     FM250300 02006KT P6SM SCT020=

USA.gov is the U.S. government's official web portal to all federal, state and local government web resources and services.